Rosecrans Memorial Airport
KSTJ : now visible

Airfield :











YOU CAN JOIN US ON...

 
LOGIN :

Register | Disclaimer

   EN    FR    IT 

 









Legend :    VFR   Marginal VFR   IFR   Intensive IFR   Very Intensive IFR
Visi :
Ceiling :
>= 8 km
>= 3000ft
5 to 8 km
1000 to 3000 ft
1500m to 5 km
500 to 1000 ft
800 to 1500m
200 to 500 ft
< 800m
< 200 ft
Symbols :   Thunderstorms  Fog  Heavy snow  Heavy precipitations  Wind > 20 kt






- Airport Elevation : 826 ft


KSTJ - Rosecrans Memorial

CURRENT METAR :
  • 221553Z 29021G33KT 10SM CLR 10/M02 A2998 RMK AO2 PK WND 28033/1552 SLP152 T01001022

EXPIRED METARs :
  • 221453Z 30016G25KT 10SM CLR 09/M01 A2997 RMK AO2 SLP149 T00891011 53020
  • 221353Z 29011G26KT 10SM CLR 07/M01 A2995 RMK AO2 PK WND 28026/1344 SLP144 T00721011

TAF KSTJ
Valid from the 22 at 12:00 until the 23 at 12:00 UTC


221120Z 2212/2312 28013G21KT P6SM SKC
FM221500 28019G29KT P6SM SKC
FM222300 23005KT P6SM SCT200
FM230500 19005KT P6SM BKN100



MET'MAP, your aeronautical weather chart ! - Copyright ORBIFLY December 2007 - Disclaimer

ORBIFLY MET'MAP TEAM :

Programming & Development : Alexandra Zaïnal
Concept & Development : Baudouin d'Aumeries
Co-Development & Prog : Marc-Olivier Méhu
Technical & hardware support : Manuel Goepfert

Contact : metmap@orbifly.com




SOURCES & CREDITS :

   NOAA       Earth
Advisory